createdAt,value
2019-03-13T00:00:32.006Z,0.00
2019-03-13T00:02:24.007Z,0.00
2019-03-13T00:03:24.040Z,0.00
2019-03-13T00:05:27.128Z,0.00
2019-03-13T00:06:27.140Z,0.00
2019-03-13T00:08:29.273Z,0.00
2019-03-13T00:09:29.299Z,0.00
2019-03-13T00:11:31.448Z,0.00
2019-03-13T00:12:31.472Z,0.00
2019-03-13T00:14:33.613Z,0.00
2019-03-13T00:15:33.636Z,0.00
2019-03-13T00:17:36.753Z,0.00
2019-03-13T00:18:36.752Z,0.00
2019-03-13T00:20:38.979Z,0.00
2019-03-13T00:21:39.004Z,0.00
2019-03-13T00:23:41.185Z,0.00
2019-03-13T00:24:41.177Z,0.00
2019-03-13T00:25:41.208Z,0.00
2019-03-13T00:26:41.233Z,0.00
2019-03-13T00:27:41.263Z,0.00
2019-03-13T00:28:41.291Z,0.00
2019-03-13T00:29:41.326Z,0.00
2019-03-13T00:30:41.350Z,0.00
2019-03-13T00:31:41.379Z,0.00
2019-03-13T00:32:41.409Z,0.00
2019-03-13T00:33:41.438Z,0.00
2019-03-13T00:34:41.466Z,0.00
2019-03-13T00:35:41.500Z,0.00
2019-03-13T00:36:41.523Z,0.00
2019-03-13T00:37:41.553Z,0.00
2019-03-13T00:38:41.588Z,0.00
2019-03-13T00:39:41.614Z,0.00
2019-03-13T00:40:41.642Z,0.00
2019-03-13T00:41:41.673Z,0.00
2019-03-13T00:42:41.702Z,0.00
2019-03-13T00:43:41.728Z,0.00
2019-03-13T00:44:41.758Z,0.00
2019-03-13T00:45:41.788Z,0.00
2019-03-13T00:46:41.817Z,0.00
2019-03-13T00:47:41.845Z,0.00
2019-03-13T00:48:41.877Z,0.00
2019-03-13T00:49:41.907Z,0.00
2019-03-13T00:50:41.935Z,0.00
2019-03-13T00:51:41.962Z,0.00
2019-03-13T00:52:41.994Z,0.00
2019-03-13T00:53:42.020Z,0.00
2019-03-13T00:54:42.057Z,0.00
2019-03-13T00:55:42.080Z,0.00
2019-03-13T00:56:42.112Z,0.00
2019-03-13T00:57:42.142Z,0.00
2019-03-13T00:58:42.168Z,0.00
2019-03-13T00:59:42.197Z,0.00
2019-03-13T01:00:42.261Z,0.00
2019-03-13T01:01:42.260Z,0.00
2019-03-13T01:02:42.299Z,0.00
2019-03-13T01:03:42.316Z,0.00
2019-03-13T01:04:42.359Z,0.00
2019-03-13T01:05:42.372Z,0.00
2019-03-13T01:06:42.405Z,0.00
2019-03-13T01:07:42.437Z,0.00
2019-03-13T01:08:42.462Z,0.00
2019-03-13T01:09:42.489Z,0.00
2019-03-13T01:10:42.519Z,0.00
2019-03-13T01:11:42.552Z,0.00
2019-03-13T01:12:42.577Z,0.00
2019-03-13T01:13:42.608Z,0.00
2019-03-13T01:14:42.640Z,0.00
2019-03-13T01:15:42.670Z,0.00
2019-03-13T01:16:42.696Z,0.00
2019-03-13T01:17:42.777Z,0.00
2019-03-13T01:18:42.754Z,0.00
2019-03-13T01:19:42.782Z,0.00
2019-03-13T01:20:42.818Z,0.00
2019-03-13T01:21:42.843Z,0.00
2019-03-13T01:22:42.873Z,0.00
2019-03-13T01:23:42.901Z,0.00
2019-03-13T01:24:42.931Z,0.00
2019-03-13T01:25:42.962Z,0.00
2019-03-13T01:26:42.992Z,0.00
2019-03-13T01:27:43.083Z,0.00
2019-03-13T01:28:43.050Z,0.00
2019-03-13T01:29:43.082Z,0.00
2019-03-13T01:30:43.108Z,0.00
2019-03-13T01:31:43.176Z,0.00
2019-03-13T01:32:43.171Z,0.00
2019-03-13T01:33:43.195Z,0.00
2019-03-13T01:34:43.225Z,0.00
2019-03-13T01:35:43.259Z,0.00
2019-03-13T01:36:43.287Z,0.00
2019-03-13T01:37:43.313Z,0.00
2019-03-13T01:38:43.341Z,0.00
2019-03-13T01:39:43.369Z,0.00
2019-03-13T01:40:43.401Z,0.00
2019-03-13T01:41:43.430Z,0.00
2019-03-13T01:42:43.475Z,0.00
2019-03-13T01:43:43.486Z,0.00
2019-03-13T01:44:43.519Z,0.00
2019-03-13T01:45:43.546Z,0.00
2019-03-13T01:46:43.575Z,0.00
2019-03-13T01:47:43.627Z,0.00
2019-03-13T01:48:43.638Z,0.00
2019-03-13T01:49:43.666Z,0.00
2019-03-13T01:50:43.692Z,0.00
2019-03-13T01:51:43.721Z,0.00
2019-03-13T01:52:43.751Z,0.00
2019-03-13T01:53:43.780Z,0.00
2019-03-13T01:54:43.816Z,0.00
2019-03-13T01:55:43.840Z,0.00
2019-03-13T01:56:43.876Z,0.00
2019-03-13T01:57:43.895Z,0.00
2019-03-13T01:58:43.926Z,0.00
2019-03-13T01:59:43.954Z,0.00
2019-03-13T02:00:43.982Z,0.00
2019-03-13T02:01:44.013Z,0.00
2019-03-13T02:02:44.041Z,0.00
2019-03-13T02:03:44.070Z,0.00
2019-03-13T02:04:44.101Z,0.00
2019-03-13T02:05:44.128Z,0.00
2019-03-13T02:06:44.159Z,0.00
2019-03-13T02:07:44.187Z,0.00
2019-03-13T02:08:44.244Z,0.00
2019-03-13T02:09:44.248Z,0.00
2019-03-13T02:10:44.275Z,0.00
2019-03-13T02:11:44.310Z,0.00
2019-03-13T02:12:44.332Z,0.00
2019-03-13T02:13:44.362Z,0.00
2019-03-13T02:14:44.391Z,0.00
2019-03-13T02:15:44.425Z,0.00
2019-03-13T02:16:44.451Z,0.00
2019-03-13T02:17:44.479Z,0.00
2019-03-13T02:18:44.507Z,0.00
2019-03-13T02:19:44.537Z,0.00
2019-03-13T02:20:44.569Z,0.00
2019-03-13T02:21:44.595Z,0.00
2019-03-13T02:22:44.625Z,0.00
2019-03-13T02:23:44.650Z,0.00
2019-03-13T02:24:44.682Z,0.00
2019-03-13T02:25:44.711Z,0.00
2019-03-13T02:26:44.738Z,0.00
2019-03-13T02:27:44.770Z,0.00
2019-03-13T02:28:44.795Z,0.00
2019-03-13T02:29:44.826Z,0.00
2019-03-13T02:30:44.855Z,0.00
2019-03-13T02:31:44.886Z,0.00
2019-03-13T02:32:44.928Z,0.00
2019-03-13T02:33:44.944Z,0.00
2019-03-13T02:34:44.969Z,0.00
2019-03-13T02:35:45.004Z,0.00
2019-03-13T02:36:45.025Z,0.00
2019-03-13T02:37:45.058Z,0.00
2019-03-13T02:38:45.084Z,0.00
2019-03-13T02:39:45.113Z,0.00
2019-03-13T02:40:45.142Z,0.00
2019-03-13T02:41:45.173Z,0.00
2019-03-13T02:42:45.200Z,0.00
2019-03-13T02:43:45.228Z,0.00
2019-03-13T02:44:45.261Z,0.00
2019-03-13T02:45:45.314Z,0.00
2019-03-13T02:46:45.323Z,0.00
2019-03-13T02:47:45.352Z,0.00
2019-03-13T02:48:45.372Z,0.00
2019-03-13T02:49:45.399Z,0.00
2019-03-13T02:50:45.432Z,0.00
2019-03-13T02:51:45.456Z,0.00
2019-03-13T02:52:45.487Z,0.00
2019-03-13T02:53:45.516Z,0.00
2019-03-13T02:54:45.543Z,0.00
2019-03-13T02:55:45.593Z,0.00
2019-03-13T02:56:45.602Z,0.00
2019-03-13T02:57:45.629Z,0.00
2019-03-13T02:58:45.658Z,0.00
2019-03-13T02:59:45.684Z,0.00
2019-03-13T03:00:45.715Z,0.00
2019-03-13T03:01:45.745Z,0.00
2019-03-13T03:02:45.773Z,0.00
2019-03-13T03:03:45.802Z,0.00
2019-03-13T03:04:45.831Z,0.00
2019-03-13T03:05:45.859Z,0.00
2019-03-13T03:06:45.888Z,0.00
2019-03-13T03:07:45.919Z,0.00
2019-03-13T03:08:45.947Z,0.00
2019-03-13T03:09:45.973Z,0.00
2019-03-13T03:10:46.002Z,0.00
2019-03-13T03:11:46.031Z,0.00
2019-03-13T03:12:46.072Z,0.00
2019-03-13T03:13:46.087Z,0.00
2019-03-13T03:14:46.117Z,0.00
2019-03-13T03:15:46.229Z,0.00
2019-03-13T03:16:46.182Z,0.00
2019-03-13T03:17:46.202Z,0.00
2019-03-13T03:18:46.230Z,0.00
2019-03-13T03:19:46.258Z,0.00
2019-03-13T03:20:46.311Z,0.00
2019-03-13T03:21:46.316Z,0.00
2019-03-13T03:22:46.363Z,0.00
2019-03-13T03:23:46.376Z,0.00
2019-03-13T03:24:46.405Z,0.00
2019-03-13T03:25:46.432Z,0.00
2019-03-13T03:26:46.482Z,0.00
2019-03-13T03:27:46.493Z,0.00
2019-03-13T03:28:46.519Z,0.00
2019-03-13T03:29:46.551Z,0.00
2019-03-13T03:30:46.577Z,0.00
2019-03-13T03:31:46.605Z,0.00
2019-03-13T03:32:46.646Z,0.00
2019-03-13T03:33:46.663Z,0.00
2019-03-13T03:34:46.691Z,0.00
2019-03-13T03:35:46.723Z,0.00
2019-03-13T03:36:46.748Z,0.00
2019-03-13T03:37:46.777Z,0.00
2019-03-13T03:38:46.806Z,0.00
2019-03-13T03:39:46.834Z,0.00
2019-03-13T03:40:46.873Z,0.00
2019-03-13T03:41:46.892Z,0.00
2019-03-13T03:42:46.927Z,0.00
2019-03-13T03:43:46.951Z,0.00
2019-03-13T03:44:46.978Z,0.00
2019-03-13T03:45:47.008Z,0.00
2019-03-13T03:46:47.040Z,0.00
2019-03-13T03:47:47.067Z,0.00
2019-03-13T03:48:47.097Z,0.00
2019-03-13T03:49:47.134Z,0.00
2019-03-13T03:50:47.167Z,0.00
2019-03-13T03:51:47.179Z,0.00
2019-03-13T03:52:47.212Z,0.00
2019-03-13T03:53:47.238Z,0.00
2019-03-13T03:54:47.275Z,0.00
2019-03-13T03:55:47.332Z,0.00
2019-03-13T03:56:47.323Z,0.00
2019-03-13T03:57:47.429Z,0.00
2019-03-13T03:58:47.381Z,0.00
2019-03-13T03:59:47.410Z,0.00
2019-03-13T04:00:47.442Z,0.00
2019-03-13T04:01:47.469Z,0.00
2019-03-13T04:02:47.531Z,0.00
2019-03-13T04:03:47.526Z,0.00
2019-03-13T04:04:47.554Z,0.00
2019-03-13T04:05:47.582Z,0.00
2019-03-13T04:06:47.682Z,0.00
2019-03-13T04:07:47.700Z,0.00
2019-03-13T04:08:47.670Z,0.00
2019-03-13T04:09:47.699Z,0.00
2019-03-13T04:10:47.727Z,0.00
2019-03-13T04:11:47.756Z,0.00
2019-03-13T04:12:47.789Z,0.00
2019-03-13T04:13:47.838Z,0.00
2019-03-13T04:14:47.850Z,0.00
2019-03-13T04:15:47.874Z,0.00
2019-03-13T04:16:47.901Z,0.00
2019-03-13T04:17:47.929Z,0.00
2019-03-13T04:18:47.957Z,0.00
2019-03-13T04:19:47.988Z,0.00
2019-03-13T04:20:48.016Z,0.00
2019-03-13T04:21:48.044Z,0.00
2019-03-13T04:22:48.104Z,0.00
2019-03-13T04:23:48.101Z,0.00
2019-03-13T04:24:48.129Z,0.00
2019-03-13T04:25:48.197Z,0.00
2019-03-13T04:26:48.186Z,0.00
2019-03-13T04:27:48.213Z,0.00
2019-03-13T04:28:48.243Z,0.00
2019-03-13T04:29:48.279Z,0.00
2019-03-13T04:30:48.306Z,0.00
2019-03-13T04:31:48.431Z,0.00
2019-03-13T04:32:48.361Z,0.00
2019-03-13T04:33:48.388Z,0.00
2019-03-13T04:34:48.416Z,0.00
2019-03-13T04:35:48.444Z,0.00
2019-03-13T04:36:48.473Z,0.00
2019-03-13T04:37:48.500Z,0.00
2019-03-13T04:38:48.530Z,0.00
2019-03-13T04:39:48.558Z,0.00
2019-03-13T04:40:48.586Z,0.00
2019-03-13T04:41:48.617Z,0.00
2019-03-13T04:42:48.646Z,0.00
2019-03-13T04:43:48.674Z,0.00
2019-03-13T04:44:48.710Z,0.00
2019-03-13T04:45:48.730Z,0.00
2019-03-13T04:46:48.759Z,0.00
2019-03-13T04:47:48.786Z,0.00
2019-03-13T04:48:48.819Z,0.00
2019-03-13T04:49:48.846Z,0.00
2019-03-13T04:50:48.872Z,0.00
2019-03-13T04:51:48.901Z,0.00
2019-03-13T04:52:48.929Z,0.00
2019-03-13T04:53:48.959Z,0.00
2019-03-13T04:54:48.987Z,0.00
2019-03-13T04:55:52.294Z,0.00
2019-03-13T04:56:49.050Z,0.00
2019-03-13T04:57:49.079Z,0.00
2019-03-13T04:58:49.103Z,0.00
2019-03-13T04:59:49.130Z,0.00
2019-03-13T05:00:49.160Z,0.00
2019-03-13T05:01:49.192Z,0.00
2019-03-13T05:02:49.233Z,0.00
2019-03-13T05:03:49.242Z,0.00
2019-03-13T05:04:49.272Z,0.00
2019-03-13T05:05:49.299Z,0.00
2019-03-13T05:06:49.331Z,0.00
2019-03-13T05:07:49.356Z,0.00
2019-03-13T05:08:49.384Z,0.00
2019-03-13T05:09:49.420Z,0.00
2019-03-13T05:10:49.480Z,0.00
2019-03-13T05:11:49.471Z,0.00
2019-03-13T05:12:49.550Z,0.00
2019-03-13T05:13:49.538Z,0.00
2019-03-13T05:14:49.556Z,0.00
2019-03-13T05:15:49.585Z,0.00
2019-03-13T05:16:49.612Z,0.00
2019-03-13T05:17:49.641Z,0.00
2019-03-13T05:18:49.669Z,0.00
2019-03-13T05:19:49.696Z,0.00
2019-03-13T05:20:49.727Z,0.00
2019-03-13T05:21:49.756Z,0.00
2019-03-13T05:22:49.782Z,0.00
2019-03-13T05:23:49.809Z,0.00
2019-03-13T05:24:49.838Z,0.00
2019-03-13T05:25:49.867Z,0.00
2019-03-13T05:26:49.894Z,0.00
2019-03-13T05:27:49.921Z,0.00
2019-03-13T05:28:49.954Z,0.00
2019-03-13T05:29:49.979Z,0.00
2019-03-13T05:30:52.905Z,0.00
2019-03-13T05:31:50.035Z,0.00
2019-03-13T05:32:50.064Z,0.00
2019-03-13T05:33:50.095Z,0.00
2019-03-13T05:34:50.121Z,0.00
2019-03-13T05:35:50.148Z,0.00
2019-03-13T05:36:50.176Z,0.00
2019-03-13T05:37:50.204Z,0.00
2019-03-13T05:38:50.233Z,0.00
2019-03-13T05:39:50.261Z,0.00
2019-03-13T05:40:50.289Z,0.00
2019-03-13T05:41:50.317Z,0.00
2019-03-13T05:42:50.347Z,0.00
2019-03-13T05:43:50.372Z,0.00
2019-03-13T05:44:50.402Z,0.00
2019-03-13T05:45:50.430Z,0.00
2019-03-13T05:46:50.457Z,0.00
2019-03-13T05:47:50.486Z,0.00
2019-03-13T05:48:50.514Z,0.00
2019-03-13T05:49:50.544Z,0.00
2019-03-13T05:50:50.577Z,0.00
2019-03-13T05:51:50.604Z,0.00
2019-03-13T05:52:50.631Z,0.00
2019-03-13T05:53:50.655Z,0.00
2019-03-13T05:54:50.684Z,0.00
2019-03-13T05:55:50.711Z,0.00
2019-03-13T05:56:50.744Z,5.63
2019-03-13T05:57:50.775Z,5.63
2019-03-13T05:58:50.800Z,5.63
2019-03-13T05:59:50.823Z,5.63
2019-03-13T06:00:50.851Z,5.63
2019-03-13T06:01:50.880Z,5.63
2019-03-13T06:02:50.908Z,5.63
2019-03-13T06:03:50.934Z,5.63
2019-03-13T06:04:50.968Z,5.63
2019-03-13T06:05:50.995Z,5.63
2019-03-13T06:06:51.020Z,0.00
2019-03-13T06:07:51.046Z,0.00
2019-03-13T06:08:51.080Z,0.00
2019-03-13T06:09:51.115Z,0.00
2019-03-13T06:10:51.133Z,0.00
2019-03-13T06:11:51.216Z,0.00
2019-03-13T06:12:51.199Z,0.00
2019-03-13T06:13:51.217Z,0.00
2019-03-13T06:14:51.253Z,0.00
2019-03-13T06:15:51.274Z,0.00
2019-03-13T06:16:51.303Z,0.00
2019-03-13T06:17:51.328Z,0.00
2019-03-13T06:18:52.905Z,0.00
2019-03-13T06:19:51.385Z,0.00
2019-03-13T06:20:51.415Z,0.00
2019-03-13T06:21:51.446Z,0.00
2019-03-13T06:22:51.469Z,0.00
2019-03-13T06:23:51.500Z,0.00
2019-03-13T06:24:51.527Z,0.00
2019-03-13T06:25:51.553Z,0.00
2019-03-13T06:26:51.582Z,0.00
2019-03-13T06:27:51.609Z,0.00
2019-03-13T06:28:51.636Z,0.00
2019-03-13T06:29:51.671Z,0.00
2019-03-13T06:30:51.694Z,0.00
2019-03-13T06:31:51.724Z,0.00
2019-03-13T06:32:51.749Z,0.00
2019-03-13T06:33:51.779Z,0.00
2019-03-13T06:34:51.813Z,0.00
2019-03-13T06:35:51.836Z,0.00
2019-03-13T06:36:51.865Z,0.00
2019-03-13T06:37:51.890Z,0.00
2019-03-13T06:38:51.919Z,0.00
2019-03-13T06:39:51.946Z,0.00
2019-03-13T06:40:51.976Z,0.00
2019-03-13T06:41:52.003Z,0.00
2019-03-13T06:42:52.032Z,5.63
2019-03-13T06:43:52.061Z,5.63
2019-03-13T06:44:52.087Z,5.63
2019-03-13T06:45:52.116Z,5.63
2019-03-13T06:46:52.144Z,5.63
2019-03-13T06:47:52.170Z,5.63
2019-03-13T06:48:52.198Z,5.63
2019-03-13T06:49:52.229Z,5.63
2019-03-13T06:50:52.256Z,5.63
2019-03-13T06:51:52.282Z,5.63
2019-03-13T06:52:52.312Z,5.63
2019-03-13T06:53:52.340Z,5.63
2019-03-13T06:54:52.367Z,5.63
2019-03-13T06:55:52.418Z,5.63
2019-03-13T06:56:52.422Z,5.63
2019-03-13T06:57:52.453Z,5.63
2019-03-13T06:58:52.480Z,5.63
2019-03-13T06:59:52.517Z,11.25
2019-03-13T07:00:52.538Z,11.25
2019-03-13T07:01:52.565Z,11.25
2019-03-13T07:02:52.592Z,11.25
2019-03-13T07:03:52.621Z,16.88
2019-03-13T07:04:52.650Z,16.88
2019-03-13T07:05:52.678Z,16.88
2019-03-13T07:06:52.705Z,16.88
2019-03-13T07:07:52.733Z,16.88
2019-03-13T07:08:52.760Z,16.88
2019-03-13T07:09:52.787Z,22.50
2019-03-13T07:10:52.817Z,22.50
2019-03-13T07:11:52.845Z,22.50
2019-03-13T07:12:52.874Z,22.50
2019-03-13T07:13:52.901Z,22.50
2019-03-13T07:14:52.929Z,22.50
2019-03-13T07:15:52.957Z,22.50
2019-03-13T07:16:52.984Z,16.88
2019-03-13T07:17:53.012Z,16.88
2019-03-13T07:18:53.042Z,16.88
2019-03-13T07:19:53.069Z,16.88
2019-03-13T07:20:53.098Z,16.88
2019-03-13T07:21:53.132Z,22.50
2019-03-13T07:22:53.155Z,22.50
2019-03-13T07:23:53.182Z,16.88
2019-03-13T07:24:53.210Z,22.50
2019-03-13T07:25:53.239Z,22.50
2019-03-13T07:26:53.267Z,16.88
2019-03-13T07:27:53.295Z,16.88
2019-03-13T07:28:53.325Z,22.50
2019-03-13T07:29:53.352Z,28.13
2019-03-13T07:30:53.416Z,28.13
2019-03-13T07:31:53.431Z,28.13
2019-03-13T07:32:56.470Z,28.13
2019-03-13T07:33:53.474Z,22.50
2019-03-13T07:34:53.493Z,28.13
2019-03-13T07:35:53.519Z,28.13
2019-03-13T07:36:53.549Z,22.50
2019-03-13T07:37:53.578Z,22.50
2019-03-13T07:38:53.606Z,22.50
2019-03-13T07:39:53.634Z,22.50
2019-03-13T07:40:53.662Z,28.13
2019-03-13T07:41:53.691Z,33.75
2019-03-13T07:42:53.722Z,33.75
2019-03-13T07:43:54.042Z,33.75
2019-03-13T07:44:53.775Z,33.75
2019-03-13T07:45:53.805Z,33.75
2019-03-13T07:46:53.832Z,33.75
2019-03-13T07:47:53.859Z,33.75
2019-03-13T07:48:53.891Z,28.13
2019-03-13T07:49:53.915Z,33.75
2019-03-13T07:50:53.945Z,33.75
2019-03-13T07:51:53.975Z,33.75
2019-03-13T07:52:54.001Z,33.75
2019-03-13T07:53:54.029Z,33.75
2019-03-13T07:54:54.057Z,33.75
2019-03-13T07:55:54.086Z,33.75
2019-03-13T07:56:54.116Z,33.75
2019-03-13T07:57:54.147Z,33.75
2019-03-13T07:58:54.172Z,28.13
2019-03-13T07:59:54.204Z,22.50
2019-03-13T08:00:54.228Z,22.50
2019-03-13T08:01:54.262Z,22.50
2019-03-13T08:02:54.286Z,22.50
2019-03-13T08:03:54.316Z,22.50
2019-03-13T08:04:54.342Z,22.50
2019-03-13T08:05:54.371Z,22.50
2019-03-13T08:06:54.400Z,22.50
2019-03-13T08:07:54.500Z,22.50
2019-03-13T08:08:54.459Z,22.50
2019-03-13T08:09:54.488Z,28.13
2019-03-13T08:10:54.517Z,28.13
2019-03-13T08:11:54.546Z,28.13
2019-03-13T08:12:54.571Z,28.13
2019-03-13T08:13:54.599Z,28.13
2019-03-13T08:14:54.627Z,33.75
2019-03-13T08:15:54.655Z,33.75
2019-03-13T08:16:54.686Z,33.75
2019-03-13T08:17:54.714Z,33.75
2019-03-13T08:18:54.742Z,39.38
2019-03-13T08:19:54.770Z,45.00
2019-03-13T08:20:54.799Z,45.00
2019-03-13T08:21:54.832Z,45.00
2019-03-13T08:22:54.860Z,45.00
2019-03-13T08:23:54.887Z,45.00
2019-03-13T08:24:54.928Z,45.00
2019-03-13T08:25:55.008Z,45.00
2019-03-13T08:26:54.976Z,45.00
2019-03-13T08:27:55.003Z,56.25
2019-03-13T08:28:55.030Z,56.25
2019-03-13T08:29:55.060Z,56.25
2019-03-13T08:30:55.083Z,50.63
2019-03-13T08:31:55.113Z,50.63
2019-03-13T08:32:55.141Z,56.25
2019-03-13T08:33:55.178Z,56.25
2019-03-13T08:34:55.200Z,56.25
2019-03-13T08:35:55.227Z,50.63
2019-03-13T08:36:55.287Z,50.63
2019-03-13T08:37:55.286Z,56.25
2019-03-13T08:38:55.316Z,56.25
2019-03-13T08:39:55.344Z,56.25
2019-03-13T08:40:55.376Z,50.63
2019-03-13T08:41:55.405Z,56.25
2019-03-13T08:42:55.432Z,50.63
2019-03-13T08:43:55.459Z,50.63
2019-03-13T08:44:55.504Z,56.25
2019-03-13T08:45:55.518Z,61.88
2019-03-13T08:46:55.547Z,61.88
2019-03-13T08:47:55.575Z,67.50
2019-03-13T08:48:55.607Z,56.25
2019-03-13T08:49:55.634Z,56.25
2019-03-13T08:50:55.665Z,61.88
2019-03-13T08:51:55.695Z,67.50
2019-03-13T08:52:55.722Z,73.13
2019-03-13T08:53:56.295Z,61.88
2019-03-13T08:54:55.781Z,61.88
2019-03-13T08:55:55.809Z,78.75
2019-03-13T08:56:55.841Z,78.75
2019-03-13T08:57:55.872Z,78.75
2019-03-13T08:58:55.903Z,78.75
2019-03-13T08:59:55.928Z,84.38
2019-03-13T09:00:55.956Z,95.63
2019-03-13T09:01:55.986Z,84.38
2019-03-13T09:02:56.017Z,67.50
2019-03-13T09:03:56.045Z,67.50
2019-03-13T09:04:56.077Z,78.75
2019-03-13T09:05:56.105Z,84.38
2019-03-13T09:06:56.135Z,84.38
2019-03-13T09:07:56.165Z,84.38
2019-03-13T09:08:56.193Z,84.38
2019-03-13T09:09:56.222Z,95.63
2019-03-13T09:10:56.255Z,84.38
2019-03-13T09:11:56.283Z,84.38
2019-03-13T09:13:01.307Z,84.38
2019-03-13T09:13:56.343Z,78.75
2019-03-13T09:14:56.380Z,78.75
2019-03-13T09:15:56.401Z,90.00
2019-03-13T09:16:56.433Z,84.38
2019-03-13T09:17:56.466Z,84.38
2019-03-13T09:18:56.492Z,84.38
2019-03-13T09:19:56.522Z,73.13
2019-03-13T09:20:56.552Z,67.50
2019-03-13T09:21:56.584Z,67.50
2019-03-13T09:22:56.612Z,73.13
2019-03-13T09:23:56.642Z,101.25
2019-03-13T09:24:56.672Z,84.38
2019-03-13T09:25:56.703Z,73.13
2019-03-13T09:26:56.732Z,78.75
2019-03-13T09:27:56.764Z,106.88
2019-03-13T09:28:56.792Z,78.75
2019-03-13T09:29:56.823Z,61.88
2019-03-13T09:30:56.853Z,50.63
2019-03-13T09:31:56.886Z,56.25
2019-03-13T09:32:56.913Z,61.88
2019-03-13T09:33:56.945Z,56.25
2019-03-13T09:34:56.972Z,50.63
2019-03-13T09:35:57.004Z,67.50
2019-03-13T09:36:57.121Z,61.88
2019-03-13T09:37:57.069Z,45.00
2019-03-13T09:38:57.095Z,50.63
2019-03-13T09:39:57.125Z,50.63
2019-03-13T09:40:57.154Z,67.50
2019-03-13T09:41:57.191Z,61.88
2019-03-13T09:42:57.217Z,50.63
2019-03-13T09:43:59.830Z,61.88
2019-03-13T09:44:57.275Z,56.25
2019-03-13T09:45:57.304Z,67.50
2019-03-13T09:46:57.364Z,61.88
2019-03-13T09:47:57.365Z,61.88
2019-03-13T09:48:57.405Z,50.63
2019-03-13T09:49:57.426Z,56.25
2019-03-13T09:50:57.456Z,50.63
2019-03-13T09:51:57.487Z,45.00
2019-03-13T09:52:57.520Z,45.00
2019-03-13T09:53:57.548Z,33.75
2019-03-13T09:54:57.617Z,39.38
2019-03-13T09:55:57.608Z,56.25
2019-03-13T09:56:57.637Z,61.88
2019-03-13T09:57:57.668Z,61.88
2019-03-13T09:58:57.696Z,45.00
2019-03-13T09:59:57.728Z,61.88
2019-03-13T10:00:57.759Z,73.13
2019-03-13T10:01:57.789Z,56.25
2019-03-13T10:02:57.822Z,45.00
2019-03-13T10:03:57.848Z,39.38
2019-03-13T10:04:57.880Z,33.75
2019-03-13T10:05:57.910Z,28.13
2019-03-13T10:06:57.940Z,28.13
2019-03-13T10:07:57.969Z,28.13
2019-03-13T10:08:58.000Z,28.13
2019-03-13T10:09:58.028Z,28.13
2019-03-13T10:10:58.059Z,33.75
2019-03-13T10:11:58.090Z,33.75
2019-03-13T10:12:58.118Z,39.38
2019-03-13T10:13:58.157Z,39.38
2019-03-13T10:14:58.180Z,50.63
2019-03-13T10:15:58.215Z,90.00
2019-03-13T10:17:10.069Z,84.38
2019-03-13T10:17:58.270Z,95.63
2019-03-13T10:18:58.299Z,84.38
2019-03-13T10:19:58.333Z,84.38
2019-03-13T10:20:58.364Z,90.00
2019-03-13T10:21:58.389Z,101.25
2019-03-13T10:22:58.420Z,84.38
2019-03-13T10:23:58.451Z,84.38
2019-03-13T10:24:58.483Z,123.75
2019-03-13T10:25:58.511Z,78.75
2019-03-13T10:26:58.541Z,78.75
2019-03-13T10:27:58.571Z,61.88
2019-03-13T10:28:58.601Z,84.38
2019-03-13T10:29:58.670Z,101.25
2019-03-13T10:30:58.661Z,112.50
2019-03-13T10:31:58.692Z,101.25
2019-03-13T10:32:58.722Z,101.25
2019-03-13T10:33:58.753Z,106.88
2019-03-13T10:34:58.784Z,118.13
2019-03-13T10:35:58.813Z,118.13
2019-03-13T10:36:58.844Z,101.25
2019-03-13T10:37:58.876Z,112.50
2019-03-13T10:38:58.905Z,129.38
2019-03-13T10:39:58.936Z,123.75
2019-03-13T10:40:58.966Z,101.25
2019-03-13T10:41:59.051Z,129.38
2019-03-13T10:42:59.033Z,123.75
2019-03-13T10:43:59.060Z,123.75
2019-03-13T10:44:59.109Z,101.25
2019-03-13T10:45:59.122Z,101.25
2019-03-13T10:46:59.163Z,106.88
2019-03-13T10:47:59.187Z,101.25
2019-03-13T10:48:59.217Z,84.38
2019-03-13T10:49:59.246Z,90.00
2019-03-13T10:50:59.278Z,90.00
2019-03-13T10:51:59.309Z,95.63
2019-03-13T10:52:59.340Z,95.63
2019-03-13T10:53:59.370Z,84.38
2019-03-13T10:54:59.402Z,90.00
2019-03-13T10:55:59.434Z,118.13
2019-03-13T10:56:59.467Z,112.50
2019-03-13T10:57:59.501Z,101.25
2019-03-13T10:58:59.529Z,112.50
2019-03-13T10:59:59.559Z,106.88
2019-03-13T11:00:59.590Z,106.88
2019-03-13T11:01:59.622Z,101.25
2019-03-13T11:02:59.654Z,112.50
2019-03-13T11:03:59.685Z,118.13
2019-03-13T11:04:59.716Z,123.75
2019-03-13T11:05:59.755Z,112.50
2019-03-13T11:06:59.782Z,106.88
2019-03-13T11:07:59.812Z,112.50
2019-03-13T11:08:59.843Z,112.50
2019-03-13T11:09:59.874Z,112.50
2019-03-13T11:10:59.909Z,95.63
2019-03-13T11:11:59.944Z,106.88
2019-03-13T11:12:59.970Z,90.00
2019-03-13T11:14:00.003Z,118.13
2019-03-13T11:15:00.055Z,129.38
2019-03-13T11:16:00.065Z,106.88
2019-03-13T11:17:00.097Z,101.25
2019-03-13T11:18:00.128Z,101.25
2019-03-13T11:19:00.162Z,106.88
2019-03-13T11:20:00.264Z,90.00
2019-03-13T11:21:00.228Z,95.63
2019-03-13T11:22:00.259Z,78.75
2019-03-13T11:23:00.291Z,73.13
2019-03-13T11:24:01.042Z,67.50
2019-03-13T11:25:00.433Z,67.50
2019-03-13T11:26:00.385Z,61.88
2019-03-13T11:27:00.418Z,73.13
2019-03-13T11:28:00.450Z,45.00
2019-03-13T11:29:00.480Z,33.75
2019-03-13T11:30:00.516Z,28.13
2019-03-13T11:31:00.545Z,22.50
2019-03-13T11:32:00.586Z,22.50
2019-03-13T11:33:00.623Z,22.50
2019-03-13T11:34:00.643Z,16.88
2019-03-13T11:35:00.673Z,22.50
2019-03-13T11:36:00.703Z,22.50
2019-03-13T11:37:00.736Z,22.50
2019-03-13T11:38:00.769Z,22.50
2019-03-13T11:39:00.798Z,22.50
2019-03-13T11:40:00.829Z,22.50
2019-03-13T11:41:00.860Z,22.50
2019-03-13T11:42:00.895Z,16.88
2019-03-13T11:43:00.926Z,16.88
2019-03-13T11:44:00.955Z,16.88
2019-03-13T11:45:00.990Z,16.88
2019-03-13T11:46:01.020Z,16.88
2019-03-13T11:47:01.053Z,16.88
2019-03-13T11:48:01.086Z,16.88
2019-03-13T11:49:01.112Z,16.88
2019-03-13T11:50:01.152Z,16.88
2019-03-13T11:51:01.176Z,22.50
2019-03-13T11:52:01.211Z,22.50
2019-03-13T11:53:01.238Z,16.88
2019-03-13T11:54:01.268Z,16.88
2019-03-13T11:55:01.304Z,11.25
2019-03-13T11:56:01.329Z,11.25
2019-03-13T11:57:01.360Z,11.25
2019-03-13T11:58:01.392Z,11.25
2019-03-13T11:59:01.423Z,11.25
2019-03-13T12:00:01.455Z,11.25
2019-03-13T12:01:01.488Z,11.25
2019-03-13T12:02:01.515Z,11.25
2019-03-13T12:03:01.547Z,11.25
2019-03-13T12:04:01.578Z,11.25
2019-03-13T12:05:01.608Z,11.25
2019-03-13T12:06:01.640Z,11.25
2019-03-13T12:07:01.675Z,11.25
2019-03-13T12:08:01.704Z,11.25
2019-03-13T12:09:01.732Z,11.25
2019-03-13T12:10:01.766Z,11.25
2019-03-13T12:11:01.802Z,5.63
2019-03-13T12:12:01.825Z,5.63
2019-03-13T12:13:01.853Z,5.63
2019-03-13T12:14:01.897Z,5.63
2019-03-13T12:15:01.919Z,5.63
2019-03-13T12:16:01.947Z,5.63
2019-03-13T12:17:02.019Z,5.63
2019-03-13T12:18:02.007Z,5.63
2019-03-13T12:19:02.049Z,5.63
2019-03-13T12:20:02.069Z,5.63
2019-03-13T12:21:02.099Z,5.63
2019-03-13T12:22:02.139Z,11.25
2019-03-13T12:23:02.159Z,11.25
2019-03-13T12:24:02.191Z,11.25
2019-03-13T12:25:02.219Z,11.25
2019-03-13T12:26:03.435Z,11.25
2019-03-13T12:27:02.281Z,11.25
2019-03-13T12:28:02.310Z,11.25
2019-03-13T12:29:02.341Z,11.25
2019-03-13T12:30:02.373Z,11.25
2019-03-13T12:31:02.403Z,11.25
2019-03-13T12:32:02.435Z,11.25
2019-03-13T12:33:02.476Z,11.25
2019-03-13T12:34:02.493Z,11.25
2019-03-13T12:35:02.524Z,11.25
2019-03-13T12:36:02.554Z,16.88
2019-03-13T12:37:02.598Z,16.88
2019-03-13T12:38:02.615Z,16.88
2019-03-13T12:39:02.645Z,16.88
2019-03-13T12:40:02.677Z,16.88
2019-03-13T12:41:02.713Z,16.88
2019-03-13T12:42:02.733Z,16.88
2019-03-13T12:43:02.766Z,11.25
2019-03-13T12:44:02.795Z,11.25
2019-03-13T12:45:02.824Z,11.25
2019-03-13T12:46:02.858Z,11.25
2019-03-13T12:47:02.887Z,11.25
2019-03-13T12:48:15.809Z,11.25
2019-03-13T12:49:02.946Z,11.25
2019-03-13T12:50:02.976Z,11.25
2019-03-13T12:51:03.010Z,5.63
2019-03-13T12:52:03.036Z,5.63
2019-03-13T12:53:03.066Z,5.63
2019-03-13T12:54:03.096Z,11.25
2019-03-13T12:55:03.145Z,11.25
2019-03-13T12:56:03.208Z,5.63
2019-03-13T12:57:03.186Z,5.63
2019-03-13T12:58:03.218Z,5.63
2019-03-13T12:59:03.250Z,5.63
2019-03-13T13:00:03.278Z,5.63
2019-03-13T13:01:03.309Z,5.63
2019-03-13T13:02:03.338Z,5.63
2019-03-13T13:03:03.367Z,5.63
2019-03-13T13:04:03.404Z,5.63
2019-03-13T13:05:03.430Z,5.63
2019-03-13T13:06:03.460Z,5.63
2019-03-13T13:07:03.495Z,11.25
2019-03-13T13:08:03.521Z,11.25
2019-03-13T13:09:03.551Z,11.25
2019-03-13T13:10:03.618Z,11.25
2019-03-13T13:11:03.610Z,11.25
2019-03-13T13:12:03.639Z,11.25
2019-03-13T13:13:03.673Z,11.25
2019-03-13T13:14:03.699Z,11.25